createdAt,value
2024-03-16T00:01:41.409Z,4.80
2024-03-16T00:04:09.765Z,8.63
2024-03-16T00:06:38.536Z,6.13
2024-03-16T00:09:09.438Z,6.23
2024-03-16T00:11:37.938Z,9.33
2024-03-16T00:14:06.746Z,5.50
2024-03-16T00:16:35.505Z,6.53
2024-03-16T00:19:04.995Z,5.73
2024-03-16T00:21:33.461Z,6.03
2024-03-16T00:24:01.701Z,5.73
2024-03-16T00:26:30.761Z,8.17
2024-03-16T00:28:59.658Z,7.47
2024-03-16T00:31:28.678Z,5.80
2024-03-16T00:33:58.552Z,7.03
2024-03-16T00:36:26.748Z,6.07
2024-03-16T00:38:55.764Z,7.87
2024-03-16T00:41:28.263Z,6.80
2024-03-16T00:43:56.830Z,6.93
2024-03-16T00:46:25.051Z,8.67
2024-03-16T00:48:53.434Z,5.63
2024-03-16T00:51:22.898Z,5.43
2024-03-16T00:53:51.426Z,6.37
2024-03-16T00:56:19.777Z,7.30
2024-03-16T00:58:49.425Z,9.03
2024-03-16T01:01:18.364Z,9.37
2024-03-16T01:03:46.702Z,7.50
2024-03-16T01:06:14.927Z,10.27
2024-03-16T01:08:43.145Z,8.87
2024-03-16T01:11:11.522Z,5.30
2024-03-16T01:13:39.993Z,6.47
2024-03-16T01:16:08.387Z,7.33
2024-03-16T01:18:36.696Z,8.60
2024-03-16T01:21:07.366Z,6.37
2024-03-16T01:23:38.445Z,8.13
2024-03-16T01:26:09.877Z,9.20
2024-03-16T01:28:38.115Z,8.30
2024-03-16T01:31:06.332Z,6.90
2024-03-16T01:33:34.630Z,9.00
2024-03-16T01:36:04.712Z,9.93
2024-03-16T01:38:33.113Z,8.83
2024-03-16T01:41:01.641Z,8.50
2024-03-16T01:43:29.999Z,8.37
2024-03-16T01:45:58.220Z,8.87
2024-03-16T01:48:26.835Z,8.27
2024-03-16T01:50:56.269Z,8.70
2024-03-16T01:53:24.649Z,7.03
2024-03-16T01:55:57.184Z,7.07
2024-03-16T01:58:25.352Z,9.37
2024-03-16T02:01:03.488Z,7.27
2024-03-16T02:03:31.780Z,10.57
2024-03-16T02:06:01.172Z,5.83
2024-03-16T02:08:29.541Z,10.23
2024-03-16T02:10:58.605Z,7.40
2024-03-16T02:13:30.043Z,11.27
2024-03-16T02:15:58.277Z,6.67
2024-03-16T02:18:26.803Z,8.97
2024-03-16T02:20:55.091Z,8.20
2024-03-16T02:23:23.435Z,10.03
2024-03-16T02:25:53.563Z,8.03
2024-03-16T02:28:25.328Z,7.50
2024-03-16T02:30:53.663Z,9.03
2024-03-16T02:33:21.968Z,10.93
2024-03-16T02:35:50.136Z,7.00
2024-03-16T02:38:21.204Z,8.50
2024-03-16T02:40:49.597Z,9.80
2024-03-16T02:43:20.526Z,8.07
2024-03-16T02:45:48.820Z,7.77
2024-03-16T02:48:17.406Z,8.03
2024-03-16T02:50:51.389Z,9.23
2024-03-16T02:53:19.805Z,7.10
2024-03-16T02:55:50.147Z,8.00
2024-03-16T02:58:18.470Z,7.23
2024-03-16T03:00:47.243Z,7.67
2024-03-16T03:03:15.535Z,9.70
2024-03-16T03:05:47.340Z,7.27
2024-03-16T03:08:15.652Z,9.23
2024-03-16T03:10:44.091Z,7.90
2024-03-16T03:13:12.313Z,8.87
2024-03-16T03:15:40.784Z,7.40
2024-03-16T03:18:09.115Z,9.07
2024-03-16T03:20:37.466Z,7.70
2024-03-16T03:23:06.828Z,8.60
2024-03-16T03:25:36.601Z,9.30
2024-03-16T03:28:05.813Z,7.20
2024-03-16T03:30:37.427Z,5.90
2024-03-16T03:33:05.955Z,7.97
2024-03-16T03:35:36.010Z,8.53
2024-03-16T03:38:08.604Z,5.83
2024-03-16T03:40:36.973Z,6.93
2024-03-16T03:43:06.977Z,4.10
2024-03-16T03:45:51.439Z,7.53
2024-03-16T03:48:42.380Z,8.10
2024-03-16T03:51:10.910Z,4.73
2024-03-16T03:53:39.175Z,3.67
2024-03-16T03:56:07.644Z,3.90
2024-03-16T03:58:35.884Z,7.10
2024-03-16T04:01:04.185Z,4.53
2024-03-16T04:03:32.732Z,2.67
2024-03-16T04:06:02.790Z,3.77
2024-03-16T04:08:31.082Z,4.50
2024-03-16T04:10:59.348Z,3.50
2024-03-16T04:13:27.488Z,2.23
2024-03-16T04:15:56.783Z,3.97
2024-03-16T04:18:25.277Z,4.00
2024-03-16T04:20:53.984Z,4.23
2024-03-16T04:23:22.247Z,2.60
2024-03-16T04:25:51.732Z,3.93
2024-03-16T04:28:20.810Z,3.17
2024-03-16T04:30:48.999Z,3.40
2024-03-16T04:33:17.565Z,3.60
2024-03-16T04:35:49.504Z,3.37
2024-03-16T04:38:18.813Z,2.07
2024-03-16T04:40:47.061Z,5.93
2024-03-16T04:43:15.517Z,2.20
2024-03-16T04:45:45.889Z,3.43
2024-03-16T04:48:14.748Z,3.53
2024-03-16T04:50:43.314Z,1.90
2024-03-16T04:53:12.831Z,2.80
2024-03-16T04:55:41.536Z,2.00
2024-03-16T04:58:09.862Z,3.20
2024-03-16T05:00:40.380Z,4.47
2024-03-16T05:03:11.042Z,3.40
2024-03-16T05:05:41.990Z,3.60
2024-03-16T05:08:10.291Z,2.80
2024-03-16T05:10:41.127Z,4.20
2024-03-16T05:13:09.422Z,2.60
2024-03-16T05:15:37.731Z,3.27
2024-03-16T05:18:06.441Z,2.60
2024-03-16T05:20:36.388Z,4.80
2024-03-16T05:23:05.854Z,2.70
2024-03-16T05:25:34.035Z,4.53
2024-03-16T05:28:02.209Z,2.57
2024-03-16T05:30:31.030Z,3.10
2024-03-16T05:32:59.290Z,7.17
2024-03-16T05:35:30.033Z,3.90
2024-03-16T05:37:58.247Z,5.20
2024-03-16T05:40:26.660Z,3.70
2024-03-16T05:42:54.897Z,2.17
2024-03-16T05:45:23.043Z,7.60
2024-03-16T05:47:54.291Z,4.30
2024-03-16T05:50:22.455Z,4.57
2024-03-16T05:52:50.984Z,3.53
2024-03-16T05:55:19.162Z,3.43
2024-03-16T05:57:50.416Z,4.43
2024-03-16T06:00:21.331Z,3.50
2024-03-16T06:02:51.488Z,7.50
2024-03-16T06:05:19.711Z,4.50
2024-03-16T06:07:47.972Z,3.87
2024-03-16T06:10:16.350Z,4.37
2024-03-16T06:12:45.075Z,7.50
2024-03-16T06:15:13.354Z,4.50
2024-03-16T06:17:47.989Z,3.37
2024-03-16T06:20:16.675Z,4.67
2024-03-16T06:22:48.900Z,3.30
2024-03-16T06:25:18.452Z,5.20
2024-03-16T06:27:51.190Z,3.60
2024-03-16T06:30:20.729Z,4.77
2024-03-16T06:33:07.118Z,4.73
2024-03-16T06:35:35.893Z,4.23
2024-03-16T06:38:04.670Z,4.27
2024-03-16T06:40:37.918Z,3.73
2024-03-16T06:43:06.551Z,4.87
2024-03-16T06:45:34.990Z,3.67
2024-03-16T06:48:06.580Z,4.70
2024-03-16T06:50:36.762Z,3.80
2024-03-16T06:53:07.640Z,2.37
2024-03-16T06:55:36.163Z,4.33
2024-03-16T06:58:06.110Z,5.30
2024-03-16T07:00:34.465Z,5.17
2024-03-16T07:03:04.900Z,5.87
2024-03-16T07:05:33.118Z,4.67
2024-03-16T07:08:08.479Z,4.27
2024-03-16T07:10:36.638Z,4.70
2024-03-16T07:13:07.545Z,7.23
2024-03-16T07:15:35.892Z,6.00
2024-03-16T07:18:04.854Z,6.17
2024-03-16T07:20:33.056Z,5.13
2024-03-16T07:23:01.297Z,5.30
2024-03-16T07:25:29.613Z,4.60
2024-03-16T07:28:00.997Z,3.53
2024-03-16T07:30:29.416Z,2.87
2024-03-16T07:32:58.206Z,4.50
2024-03-16T07:35:26.627Z,3.47
2024-03-16T07:37:57.348Z,6.27
2024-03-16T07:40:25.641Z,4.00
2024-03-16T07:42:53.972Z,4.90
2024-03-16T07:45:22.937Z,4.20
2024-03-16T07:47:54.456Z,6.53
2024-03-16T07:50:22.681Z,5.27
2024-03-16T07:52:54.285Z,4.17
2024-03-16T07:55:22.550Z,4.00
2024-03-16T07:57:51.118Z,7.77
2024-03-16T08:00:19.545Z,5.50
2024-03-16T08:02:47.707Z,5.17
2024-03-16T08:05:18.611Z,4.63
2024-03-16T08:07:48.921Z,6.73
2024-03-16T08:10:17.483Z,3.70
2024-03-16T08:12:45.897Z,5.23
2024-03-16T08:15:14.441Z,3.57
2024-03-16T08:17:42.693Z,2.33
2024-03-16T08:20:16.252Z,3.90
2024-03-16T08:22:45.894Z,3.23
2024-03-16T08:25:14.246Z,3.20
2024-03-16T08:27:42.716Z,3.17
2024-03-16T08:30:11.418Z,4.10
2024-03-16T08:32:39.630Z,3.70
2024-03-16T08:35:08.578Z,3.90
2024-03-16T08:37:36.828Z,2.60
2024-03-16T08:40:14.525Z,5.03
2024-03-16T08:42:42.910Z,4.23
2024-03-16T08:45:12.128Z,4.33
2024-03-16T08:47:42.866Z,3.47
2024-03-16T08:50:14.233Z,2.97
2024-03-16T08:52:44.272Z,3.10
2024-03-16T08:55:14.800Z,3.33
2024-03-16T08:57:43.454Z,3.83
2024-03-16T09:00:15.078Z,2.37
2024-03-16T09:04:20.550Z,2.70
2024-03-16T09:06:48.578Z,3.60
2024-03-16T09:09:17.676Z,1.83
2024-03-16T09:11:46.843Z,1.90
2024-03-16T09:14:15.057Z,1.50
2024-03-16T09:16:42.901Z,1.30
2024-03-16T09:19:11.180Z,1.90
2024-03-16T09:21:39.118Z,1.40
2024-03-16T09:24:07.410Z,1.63
2024-03-16T09:26:35.703Z,1.77
2024-03-16T09:29:07.170Z,1.70
2024-03-16T09:31:35.109Z,1.90
2024-03-16T09:34:04.939Z,2.17
2024-03-16T09:36:33.019Z,1.40
2024-03-16T09:39:01.245Z,1.27
2024-03-16T09:41:30.431Z,1.17
